createdAt,value
2022-12-08T00:01:19.585Z,27.60
2022-12-08T00:03:47.339Z,28.47
2022-12-08T00:06:41.791Z,24.47
2022-12-08T00:09:32.027Z,28.93
2022-12-08T00:12:03.546Z,26.70
2022-12-08T00:14:32.898Z,22.90
2022-12-08T00:17:00.391Z,26.70
2022-12-08T00:19:27.640Z,22.90
2022-12-08T00:21:55.348Z,25.10
2022-12-08T00:24:23.490Z,22.37
2022-12-08T00:26:50.099Z,25.50
2022-12-08T00:29:17.892Z,22.60
2022-12-08T00:31:45.022Z,22.47
2022-12-08T00:34:15.806Z,22.57
2022-12-08T00:36:43.156Z,21.67
2022-12-08T00:39:11.173Z,27.43
2022-12-08T00:41:56.506Z,19.30
2022-12-08T00:44:23.254Z,29.73
2022-12-08T00:46:49.974Z,25.67
2022-12-08T00:49:17.743Z,23.20
2022-12-08T00:51:44.749Z,22.83
2022-12-08T00:54:12.009Z,23.17
2022-12-08T00:56:39.640Z,30.80
2022-12-08T00:59:06.987Z,29.93
2022-12-08T01:01:34.747Z,27.70
2022-12-08T01:04:11.477Z,30.93
2022-12-08T01:06:38.954Z,29.30
2022-12-08T01:09:06.621Z,30.60
2022-12-08T01:11:33.474Z,34.40
2022-12-08T01:13:59.955Z,35.80
2022-12-08T01:16:30.158Z,35.03
2022-12-08T01:18:58.049Z,31.30
2022-12-08T01:21:28.082Z,36.90
2022-12-08T01:23:55.441Z,32.20
2022-12-08T01:26:22.314Z,33.27
2022-12-08T01:28:48.896Z,28.80
2022-12-08T01:31:17.672Z,31.23
2022-12-08T01:33:44.607Z,29.77
2022-12-08T01:36:32.151Z,32.33
2022-12-08T01:39:00.774Z,29.90
2022-12-08T01:41:33.166Z,26.73
2022-12-08T01:44:01.624Z,29.63
2022-12-08T01:46:33.356Z,31.33
2022-12-08T01:49:04.344Z,27.67
2022-12-08T01:51:33.604Z,27.13
2022-12-08T01:54:00.753Z,28.77
2022-12-08T01:56:56.602Z,28.00
2022-12-08T01:59:24.585Z,28.00
2022-12-08T02:01:51.913Z,29.33
2022-12-08T02:04:18.588Z,31.90
2022-12-08T02:06:46.195Z,29.20
2022-12-08T02:09:13.074Z,23.97
2022-12-08T02:11:39.591Z,28.80
2022-12-08T02:14:08.318Z,25.17
2022-12-08T02:16:56.088Z,31.10
2022-12-08T02:19:31.780Z,25.33
2022-12-08T02:22:30.704Z,26.20
2022-12-08T02:25:09.170Z,24.30
2022-12-08T02:27:49.951Z,26.20
2022-12-08T02:30:44.217Z,30.43
2022-12-08T02:33:25.925Z,22.80
2022-12-08T02:36:12.543Z,21.80
2022-12-08T02:38:56.117Z,22.87
2022-12-08T02:41:33.748Z,21.57
2022-12-08T02:44:08.703Z,24.70
2022-12-08T02:46:42.466Z,20.53
2022-12-08T02:49:09.694Z,23.43
2022-12-08T02:51:36.244Z,20.90
2022-12-08T02:54:03.732Z,23.70
2022-12-08T02:57:00.507Z,27.73
2022-12-08T02:59:40.801Z,21.10
2022-12-08T03:02:16.660Z,24.30
2022-12-08T03:05:06.336Z,23.07
2022-12-08T03:07:39.201Z,21.63
2022-12-08T03:10:43.685Z,26.57
2022-12-08T03:13:13.879Z,21.67
2022-12-08T03:15:41.908Z,25.70
2022-12-08T03:18:11.206Z,29.60
2022-12-08T03:20:38.947Z,21.20
2022-12-08T03:23:08.843Z,25.93
2022-12-08T03:25:43.630Z,26.73
2022-12-08T03:28:10.363Z,28.90
2022-12-08T03:30:39.673Z,26.97
2022-12-08T03:33:24.723Z,21.23
2022-12-08T03:35:51.829Z,24.27
2022-12-08T03:38:18.497Z,25.00
2022-12-08T03:41:08.996Z,30.77
2022-12-08T03:43:35.694Z,26.97
2022-12-08T03:46:02.460Z,30.37
2022-12-08T03:48:29.022Z,28.97
2022-12-08T03:50:55.599Z,27.30
2022-12-08T03:53:22.070Z,25.73
2022-12-08T03:55:48.525Z,24.17
2022-12-08T03:58:14.984Z,30.33
2022-12-08T04:00:41.458Z,36.10
2022-12-08T04:03:07.968Z,28.00
2022-12-08T04:05:34.773Z,28.30
2022-12-08T04:08:01.477Z,24.53
2022-12-08T04:10:28.143Z,26.67
2022-12-08T04:12:54.666Z,26.47
2022-12-08T04:15:21.414Z,28.53
2022-12-08T04:17:47.950Z,26.10
2022-12-08T04:20:14.524Z,28.63
2022-12-08T04:22:41.009Z,25.80
2022-12-08T04:25:07.905Z,25.83
2022-12-08T04:27:34.447Z,28.00
2022-12-08T04:30:01.034Z,26.47
2022-12-08T04:32:27.536Z,32.93
2022-12-08T04:34:54.099Z,30.73
2022-12-08T04:37:20.639Z,36.33
2022-12-08T04:39:47.244Z,29.80
2022-12-08T04:42:13.697Z,27.15
2022-12-08T04:44:40.223Z,30.57
2022-12-08T04:47:06.797Z,28.33
2022-12-08T04:49:33.549Z,26.53
2022-12-08T04:52:00.073Z,28.80
2022-12-08T04:54:27.004Z,25.47
2022-12-08T04:56:53.595Z,36.43
2022-12-08T04:59:20.069Z,31.40
2022-12-08T05:01:46.722Z,27.57
2022-12-08T05:04:13.307Z,26.23
2022-12-08T05:06:39.779Z,25.10
2022-12-08T05:09:06.265Z,28.80
2022-12-08T05:11:32.802Z,27.37
2022-12-08T05:13:59.542Z,29.20
2022-12-08T05:16:26.059Z,24.60
2022-12-08T05:18:52.623Z,28.80
2022-12-08T05:21:19.157Z,25.90
2022-12-08T05:23:46.112Z,24.77
2022-12-08T05:26:12.929Z,32.57
2022-12-08T05:28:42.290Z,30.50
2022-12-08T05:31:10.821Z,34.37
2022-12-08T05:33:37.356Z,30.40
2022-12-08T05:36:04.154Z,30.03
2022-12-08T05:38:30.761Z,33.07
2022-12-08T05:40:57.251Z,31.37
2022-12-08T05:43:23.803Z,26.33
2022-12-08T05:45:50.615Z,25.90
2022-12-08T05:48:17.240Z,28.30
2022-12-08T05:50:48.113Z,21.00
2022-12-08T05:53:15.979Z,21.97
2022-12-08T05:55:42.702Z,22.53
2022-12-08T05:58:13.601Z,20.67
2022-12-08T06:00:40.717Z,23.87
2022-12-08T06:03:07.811Z,23.57
2022-12-08T06:05:35.243Z,20.07
2022-12-08T06:08:02.107Z,21.43
2022-12-08T06:10:28.972Z,16.63
2022-12-08T06:12:55.496Z,16.53
2022-12-08T06:15:22.012Z,16.83
2022-12-08T06:17:48.849Z,15.90
2022-12-08T06:20:15.506Z,15.13
2022-12-08T06:22:41.994Z,19.97
2022-12-08T06:25:10.270Z,14.83
2022-12-08T06:27:37.043Z,16.40
2022-12-08T06:30:04.216Z,17.87
2022-12-08T06:32:31.253Z,14.63
2022-12-08T06:34:57.821Z,17.83
2022-12-08T06:37:24.374Z,18.97
2022-12-08T06:39:51.741Z,21.90
2022-12-08T06:42:37.165Z,20.80
2022-12-08T06:45:03.952Z,19.83
2022-12-08T06:47:30.614Z,22.70
2022-12-08T06:50:08.301Z,23.43
2022-12-08T06:52:37.710Z,23.90
2022-12-08T06:55:08.425Z,20.23
2022-12-08T06:57:35.500Z,20.70
2022-12-08T07:00:02.829Z,25.10
2022-12-08T07:02:30.273Z,24.87
2022-12-08T07:04:56.851Z,21.67
2022-12-08T07:07:23.393Z,20.23
2022-12-08T07:09:49.934Z,24.67
2022-12-08T07:12:16.467Z,26.37
2022-12-08T07:14:42.976Z,22.60
2022-12-08T07:17:09.484Z,23.97
2022-12-08T07:19:36.506Z,28.60
2022-12-08T07:22:03.036Z,25.60
2022-12-08T07:24:29.585Z,26.10
2022-12-08T07:26:56.151Z,26.60
2022-12-08T07:29:26.186Z,25.73
2022-12-08T07:31:53.073Z,26.57
2022-12-08T07:34:19.558Z,28.47
2022-12-08T07:36:46.104Z,27.50
2022-12-08T07:39:12.637Z,26.33
2022-12-08T07:41:39.192Z,26.53
2022-12-08T07:44:05.740Z,23.43
2022-12-08T07:46:32.288Z,24.07
2022-12-08T07:48:59.133Z,23.00
2022-12-08T07:51:25.618Z,24.53
2022-12-08T07:53:54.503Z,21.50
2022-12-08T07:56:21.902Z,18.60
2022-12-08T07:58:48.559Z,24.53
2022-12-08T08:01:29.221Z,19.83
2022-12-08T08:03:57.399Z,21.30
2022-12-08T08:06:24.248Z,23.10
2022-12-08T08:08:50.953Z,20.57
2022-12-08T08:11:21.356Z,18.90
2022-12-08T08:13:49.473Z,20.60
2022-12-08T08:16:16.128Z,18.70
2022-12-08T08:18:43.509Z,20.30
2022-12-08T08:21:43.074Z,22.33
2022-12-08T08:23:56.719Z,22.93
2022-12-08T08:26:23.274Z,18.13
2022-12-08T08:28:50.125Z,19.33
2022-12-08T08:31:16.730Z,21.43
2022-12-08T08:33:43.241Z,21.53
2022-12-08T08:36:10.223Z,17.13
2022-12-08T08:38:40.158Z,23.43
2022-12-08T08:41:10.961Z,20.53
2022-12-08T08:43:38.700Z,22.33
2022-12-08T08:46:06.673Z,18.13
2022-12-08T08:48:33.457Z,21.70
2022-12-08T08:51:07.674Z,21.00
2022-12-08T08:53:34.284Z,19.63
2022-12-08T08:56:02.916Z,21.03
2022-12-08T08:58:29.686Z,18.03
2022-12-08T09:00:56.437Z,22.20
2022-12-08T09:03:23.027Z,20.73
2022-12-08T09:05:50.595Z,22.50
2022-12-08T09:08:17.732Z,20.90
2022-12-08T09:10:44.487Z,18.40
2022-12-08T09:13:10.973Z,20.03
2022-12-08T09:15:37.540Z,18.47
2022-12-08T09:18:06.608Z,24.27
2022-12-08T09:20:34.453Z,20.40
2022-12-08T09:23:01.317Z,21.10
2022-12-08T09:25:28.689Z,20.83
2022-12-08T09:27:55.239Z,15.67
2022-12-08T09:30:21.775Z,16.60
2022-12-08T09:32:48.400Z,16.10
2022-12-08T09:35:15.432Z,17.80
2022-12-08T09:37:41.951Z,15.10
2022-12-08T09:40:10.786Z,15.53
2022-12-08T09:43:04.784Z,19.13
2022-12-08T09:45:34.416Z,18.60
2022-12-08T09:48:10.211Z,17.40
2022-12-08T09:50:57.023Z,17.23
2022-12-08T09:53:37.874Z,21.30
2022-12-08T09:56:13.525Z,17.10
2022-12-08T09:58:44.331Z,17.93
2022-12-08T10:01:11.563Z,15.77
2022-12-08T10:03:38.126Z,19.97
2022-12-08T10:06:14.310Z,17.97
2022-12-08T10:08:57.103Z,17.83
2022-12-08T10:11:29.704Z,19.33
2022-12-08T10:14:14.873Z,19.37
2022-12-08T10:16:44.766Z,21.13
2022-12-08T10:19:15.654Z,17.90
2022-12-08T10:21:42.647Z,18.20
2022-12-08T10:24:39.425Z,19.30
2022-12-08T10:27:11.542Z,17.60
2022-12-08T10:29:38.753Z,17.47
2022-12-08T10:32:16.343Z,17.83
2022-12-08T10:35:19.179Z,19.90
2022-12-08T10:38:27.744Z,18.13
2022-12-08T10:41:07.361Z,20.87
2022-12-08T10:43:34.722Z,14.77
2022-12-08T10:46:11.098Z,15.93
2022-12-08T10:48:50.916Z,14.77
2022-12-08T10:51:42.878Z,15.67
2022-12-08T10:54:38.293Z,21.83
2022-12-08T10:57:04.841Z,16.63
2022-12-08T10:59:33.894Z,15.37
2022-12-08T11:02:00.851Z,15.60
2022-12-08T11:04:35.280Z,17.00
2022-12-08T11:07:03.308Z,16.67
2022-12-08T11:09:46.652Z,16.17
2022-12-08T11:12:15.035Z,17.67
2022-12-08T11:14:44.677Z,16.90
2022-12-08T11:17:25.309Z,16.07
2022-12-08T11:19:59.306Z,16.17
2022-12-08T11:22:32.422Z,18.07
2022-12-08T11:25:11.654Z,18.00
2022-12-08T11:27:41.185Z,15.63
2022-12-08T11:30:17.636Z,15.97
2022-12-08T11:32:46.626Z,14.30
2022-12-08T11:35:37.926Z,17.20
2022-12-08T11:38:23.378Z,15.13
2022-12-08T11:40:52.510Z,16.47
2022-12-08T11:43:22.073Z,13.70
2022-12-08T11:45:57.775Z,13.47
2022-12-08T11:48:27.341Z,13.00
2022-12-08T11:51:00.367Z,12.43
2022-12-08T11:53:36.134Z,13.80
2022-12-08T11:56:08.526Z,11.33
2022-12-08T11:58:38.356Z,13.13
2022-12-08T12:01:05.156Z,14.00
2022-12-08T12:03:39.037Z,15.23
2022-12-08T12:06:54.335Z,12.07
2022-12-08T12:09:28.823Z,12.77
2022-12-08T12:12:13.779Z,11.70
2022-12-08T12:15:31.989Z,13.60
2022-12-08T12:18:05.708Z,13.03
2022-12-08T12:20:36.802Z,12.83
2022-12-08T12:23:23.550Z,11.03
2022-12-08T12:25:56.462Z,11.03
2022-12-08T12:28:25.102Z,11.97
2022-12-08T12:31:05.445Z,13.10
2022-12-08T12:33:32.900Z,11.33
2022-12-08T12:36:04.043Z,12.87
2022-12-08T12:38:52.601Z,11.10
2022-12-08T12:41:25.716Z,12.20
2022-12-08T12:44:13.831Z,11.47
2022-12-08T12:46:41.004Z,10.83
2022-12-08T12:49:40.232Z,10.90
2022-12-08T12:52:09.663Z,11.57
2022-12-08T12:54:36.176Z,13.40
2022-12-08T12:57:05.723Z,11.73
2022-12-08T13:00:05.345Z,12.33
2022-12-08T13:02:44.109Z,15.13
2022-12-08T13:05:13.474Z,11.30
2022-12-08T13:07:51.027Z,12.03
2022-12-08T13:10:23.694Z,14.00
2022-12-08T13:13:12.656Z,13.97
2022-12-08T13:15:40.095Z,13.23
2022-12-08T13:18:56.450Z,15.70
2022-12-08T13:21:24.479Z,12.70
2022-12-08T13:24:13.918Z,12.33
2022-12-08T13:26:44.557Z,12.80
2022-12-08T13:29:15.387Z,13.70
2022-12-08T13:32:09.842Z,14.20
2022-12-08T13:34:42.223Z,13.90
2022-12-08T13:37:11.810Z,13.53
2022-12-08T13:39:55.638Z,14.37
2022-12-08T13:42:35.932Z,13.10
2022-12-08T13:45:36.268Z,12.20
2022-12-08T13:48:30.255Z,15.07
2022-12-08T13:57:30.616Z,11.80
2022-12-08T14:00:01.419Z,10.73
2022-12-08T14:02:52.417Z,11.23
2022-12-08T14:05:34.831Z,10.93
2022-12-08T14:08:50.468Z,11.77
2022-12-08T14:11:07.086Z,11.30
2022-12-08T14:13:34.079Z,9.80
2022-12-08T14:16:00.753Z,8.73
2022-12-08T14:18:30.509Z,8.70
2022-12-08T14:21:21.925Z,8.63
2022-12-08T14:23:48.741Z,8.43
2022-12-08T14:26:15.251Z,8.53
2022-12-08T14:28:45.064Z,5.57
2022-12-08T14:31:14.086Z,5.90
2022-12-08T14:33:40.761Z,5.40
2022-12-08T14:36:09.624Z,5.40
2022-12-08T14:38:36.297Z,4.50
2022-12-08T14:41:05.628Z,5.57
2022-12-08T14:43:32.632Z,5.30
2022-12-08T14:46:02.321Z,6.73
2022-12-08T14:48:34.833Z,7.37
2022-12-08T14:51:11.980Z,9.73
2022-12-08T14:53:53.662Z,13.00
2022-12-08T14:56:26.937Z,11.33
2022-12-08T14:59:17.898Z,10.47
2022-12-08T15:01:47.508Z,12.93
2022-12-08T15:04:14.675Z,14.67
2022-12-08T15:06:52.479Z,15.97
2022-12-08T15:09:34.485Z,17.87
2022-12-08T15:12:03.858Z,14.70
2022-12-08T15:14:39.664Z,15.10
2022-12-08T15:17:31.771Z,21.27
2022-12-08T15:19:59.841Z,18.20
2022-12-08T15:22:29.169Z,20.10
2022-12-08T15:24:55.945Z,17.20
2022-12-08T15:27:24.026Z,20.37
2022-12-08T15:29:51.036Z,17.50
2022-12-08T15:32:20.009Z,21.57
2022-12-08T15:34:46.535Z,21.10
2022-12-08T15:37:23.846Z,21.57
2022-12-08T15:39:51.222Z,20.07
2022-12-08T15:42:18.044Z,19.07
2022-12-08T15:44:44.505Z,23.17
2022-12-08T15:47:22.438Z,18.30
2022-12-08T15:49:49.882Z,21.13
2022-12-08T15:52:19.689Z,20.70
2022-12-08T15:54:46.755Z,20.93
2022-12-08T16:09:14.152Z,19.60
2022-12-08T16:12:08.819Z,20.93
2022-12-08T16:17:24.507Z,18.77
2022-12-08T16:19:51.330Z,22.10
2022-12-08T16:25:18.723Z,16.43
2022-12-08T16:28:17.432Z,17.03
2022-12-08T16:30:33.893Z,17.73
2022-12-08T16:33:00.440Z,16.20
2022-12-08T16:35:27.102Z,18.53
2022-12-08T16:37:53.622Z,16.70
2022-12-08T16:40:20.255Z,20.10
2022-12-08T16:42:48.541Z,17.97
2022-12-08T16:45:29.560Z,18.03
2022-12-08T16:47:58.715Z,18.80
2022-12-08T16:50:27.199Z,16.17
2022-12-08T16:53:05.880Z,15.17
2022-12-08T16:55:33.550Z,15.27
2022-12-08T16:58:00.437Z,16.00
2022-12-08T17:00:28.593Z,16.53
2022-12-08T17:02:56.612Z,14.67
2022-12-08T17:05:25.347Z,18.10
2022-12-08T17:07:52.911Z,16.23
2022-12-08T17:10:27.164Z,19.23
2022-12-08T17:12:54.540Z,17.30
2022-12-08T17:15:23.221Z,18.03
2022-12-08T17:17:50.398Z,19.33
2022-12-08T17:20:20.182Z,22.77
2022-12-08T17:22:47.077Z,18.53
2022-12-08T17:25:14.017Z,22.70
2022-12-08T17:27:41.159Z,18.53
2022-12-08T17:30:11.842Z,23.20
2022-12-08T17:32:38.655Z,20.80
2022-12-08T17:35:06.117Z,18.83
2022-12-08T17:37:32.877Z,26.03
2022-12-08T17:39:59.406Z,29.73
2022-12-08T17:42:27.267Z,29.33
2022-12-08T17:44:54.706Z,31.87
2022-12-08T17:47:21.901Z,33.07
2022-12-08T17:49:48.862Z,24.07
2022-12-08T17:52:15.370Z,21.97
2022-12-08T17:54:42.000Z,23.93
2022-12-08T17:57:08.574Z,33.30
2022-12-08T17:59:35.256Z,30.43
2022-12-08T18:02:02.327Z,33.53
2022-12-08T18:04:29.008Z,31.13
2022-12-08T18:06:58.147Z,31.27
2022-12-08T18:09:24.912Z,31.37
2022-12-08T18:11:51.431Z,31.83
2022-12-08T18:14:17.938Z,29.63
2022-12-08T18:16:46.158Z,32.10
2022-12-08T18:19:13.842Z,34.00
2022-12-08T18:21:41.573Z,30.67
2022-12-08T18:24:10.645Z,25.93
2022-12-08T18:26:37.196Z,31.20
2022-12-08T18:29:03.979Z,29.77
2022-12-08T18:31:30.535Z,32.57
2022-12-08T18:33:57.345Z,27.87
2022-12-08T18:36:25.239Z,29.97
2022-12-08T18:38:52.920Z,33.87
2022-12-08T18:41:23.594Z,35.73
2022-12-08T18:43:50.397Z,50.03
2022-12-08T18:46:17.313Z,38.77
2022-12-08T18:48:47.230Z,33.00
2022-12-08T18:51:22.199Z,37.27
2022-12-08T18:53:49.150Z,33.37
2022-12-08T18:56:27.583Z,31.60
2022-12-08T18:58:59.978Z,29.80
2022-12-08T19:01:31.336Z,33.70
2022-12-08T19:04:26.854Z,32.50
2022-12-08T19:06:46.040Z,31.77
2022-12-08T19:09:12.778Z,32.20
2022-12-08T19:11:39.692Z,29.03
2022-12-08T19:14:07.275Z,30.60
2022-12-08T19:16:33.854Z,29.57
2022-12-08T19:19:01.008Z,24.80
2022-12-08T19:21:28.547Z,24.13
2022-12-08T19:23:58.362Z,27.30
2022-12-08T19:26:27.424Z,28.03
2022-12-08T19:28:54.197Z,25.47
2022-12-08T19:31:21.123Z,25.30
2022-12-08T19:33:48.037Z,26.40
2022-12-08T19:36:18.336Z,24.17
2022-12-08T19:39:03.919Z,31.03
2022-12-08T19:41:50.013Z,24.73
2022-12-08T19:44:33.980Z,28.70
2022-12-08T19:47:01.679Z,27.27
2022-12-08T19:49:28.668Z,32.60
2022-12-08T19:51:55.697Z,35.73
2022-12-08T19:54:22.817Z,30.80
2022-12-08T19:56:49.776Z,29.87
2022-12-08T19:59:16.635Z,30.90
2022-12-08T20:01:44.146Z,30.00
2022-12-08T20:04:15.306Z,29.77
2022-12-08T20:06:42.193Z,38.83
2022-12-08T20:09:10.421Z,35.03
2022-12-08T20:11:37.648Z,40.83
2022-12-08T20:14:05.707Z,36.13
2022-12-08T20:16:32.472Z,35.17
2022-12-08T20:18:59.524Z,38.67
2022-12-08T20:21:26.357Z,40.40
2022-12-08T20:23:52.996Z,36.57
2022-12-08T20:26:21.920Z,39.20
2022-12-08T20:28:49.068Z,35.47
2022-12-08T20:31:20.288Z,36.63
2022-12-08T20:33:47.269Z,37.90
2022-12-08T20:36:18.563Z,39.50
2022-12-08T20:38:46.564Z,37.10
2022-12-08T20:41:15.908Z,34.53
2022-12-08T20:43:47.090Z,42.43
2022-12-08T20:46:16.539Z,38.00
2022-12-08T20:48:43.881Z,36.60
2022-12-08T20:51:18.442Z,39.57
2022-12-08T20:53:45.825Z,33.93
2022-12-08T20:56:17.933Z,31.30
2022-12-08T20:58:45.141Z,36.03
2022-12-08T21:01:14.948Z,34.33
2022-12-08T21:03:42.316Z,32.20
2022-12-08T21:06:09.343Z,28.87
2022-12-08T21:08:36.960Z,35.03
2022-12-08T21:11:04.459Z,36.53
2022-12-08T21:13:31.469Z,34.00
2022-12-08T21:15:58.452Z,34.07
2022-12-08T21:18:25.706Z,37.60
2022-12-08T21:20:53.204Z,41.40
2022-12-08T21:23:19.899Z,32.87
2022-12-08T21:25:47.398Z,33.20
2022-12-08T21:28:14.237Z,34.67
2022-12-08T21:30:41.486Z,32.90
2022-12-08T21:33:08.269Z,33.87
2022-12-08T21:35:34.898Z,33.40
2022-12-08T21:38:01.566Z,35.63
2022-12-08T21:40:28.284Z,35.67
2022-12-08T21:42:54.879Z,37.90
2022-12-08T21:45:21.974Z,36.80
2022-12-08T21:47:50.009Z,40.77
2022-12-08T21:50:17.255Z,34.43
2022-12-08T21:52:46.056Z,40.47
2022-12-08T21:55:14.078Z,41.70
2022-12-08T21:57:40.983Z,43.33
2022-12-08T22:00:08.718Z,39.63
2022-12-08T22:02:35.767Z,42.30
2022-12-08T22:05:02.804Z,40.67
2022-12-08T22:07:29.344Z,47.70
2022-12-08T22:09:56.038Z,40.80
2022-12-08T22:12:22.960Z,41.80
2022-12-08T22:14:51.011Z,37.87
2022-12-08T22:17:18.687Z,41.67
2022-12-08T22:19:45.389Z,36.70
2022-12-08T22:22:12.147Z,42.70
2022-12-08T22:24:38.679Z,41.37
2022-12-08T22:27:05.275Z,42.70
2022-12-08T22:29:31.954Z,40.90
2022-12-08T22:31:58.456Z,38.47
2022-12-08T22:34:24.937Z,42.03
2022-12-08T22:36:51.598Z,35.90
2022-12-08T22:39:18.404Z,40.10
2022-12-08T22:41:44.878Z,42.90
2022-12-08T22:44:11.984Z,38.60
2022-12-08T22:46:38.621Z,43.33
2022-12-08T22:49:05.248Z,45.90
2022-12-08T22:51:31.757Z,38.40
2022-12-08T22:53:58.254Z,38.83
2022-12-08T22:56:25.071Z,45.13
2022-12-08T22:58:54.782Z,34.20
2022-12-08T23:01:22.566Z,40.53
2022-12-08T23:03:49.400Z,39.23
2022-12-08T23:06:16.337Z,38.63
2022-12-08T23:08:44.020Z,35.00
2022-12-08T23:11:11.134Z,40.00
2022-12-08T23:13:39.386Z,39.97
2022-12-08T23:16:09.855Z,47.00
2022-12-08T23:18:37.481Z,42.17
2022-12-08T23:21:06.398Z,34.10
2022-12-08T23:23:33.026Z,47.13
2022-12-08T23:25:59.690Z,39.50
2022-12-08T23:28:26.341Z,41.33
2022-12-08T23:30:52.991Z,40.27
2022-12-08T23:33:19.735Z,35.90
2022-12-08T23:35:46.343Z,37.17
2022-12-08T23:38:13.159Z,41.33
2022-12-08T23:40:39.684Z,40.13
2022-12-08T23:43:06.240Z,40.40
2022-12-08T23:45:32.980Z,36.63
2022-12-08T23:47:59.609Z,40.10
2022-12-08T23:50:26.645Z,39.77
2022-12-08T23:52:53.135Z,35.63
2022-12-08T23:55:19.969Z,40.57
2022-12-08T23:57:46.475Z,45.83
